Port Alberni, British Columbia

Past 24 Hour Conditions

Date / Time
(PDT)
Conditions Temp
(°F)
Humidity
(%)
Dew Point
(°F)
Wind
(mph)
Pressure
(inches)
Visibility
(miles)
17 April 2015
21:00 N/A 48 77 41 calm 30.3 N/A
20:00 N/A 54 57 40 WSW 3 30.3 N/A
19:00 N/A 60 46 39 SSW 3 30.3 N/A
18:00 N/A 62 46 41 SSE 7 30.3 N/A
17:00 N/A 64 45 42 SE 7 30.3 N/A
16:00 N/A 65 43 42 ESE 7 30.2 N/A
15:00 N/A 66   42 42 SSE 9 30.3 N/A
14:00 N/A 66   37 39 SSW 5 30.3 N/A
13:00 N/A 64 43 41 S 6 30.3 N/A
12:00 N/A 60 56 45 SE 4 30.3 N/A
11:00 N/A 57 67 46 calm 30.3 N/A
10:00 N/A 53 77 46 NNE 2 30.3 N/A
9:00 N/A 49 89 46 calm 30.3 N/A
8:00 N/A 45 96 44 calm 30.3 N/A
7:00 N/A 42   95 41 calm 30.3 N/A
6:00 N/A 44 95 42 calm 30.3 N/A
5:00 N/A 44 94 43 ESE 2 30.3 N/A
4:00 N/A 46 92 44 N 2 30.3 N/A
3:00 N/A 46 92 44 SW 2 30.2 N/A
2:00 N/A 46 93 44 calm 30.3 N/A
1:00 N/A 47 92 45 calm 30.3 N/A
00:00 N/A 46 93 44 NW 2 30.3 N/A
16 April 2015
23:00 N/A 45 91 42 calm 30.3 N/A
22:00 N/A 45 92 43 calm 30.3 N/A
21:00 N/A 49 87 45 calm 30.2 N/A
N/A Not available
↑ Highest temperature
↓ Lowest temperature

If you require additional historical weather information, please visit Climate Data Online.

What we are doing

Date modified: